Time;durP1;ratioP1;P1;durP2;ratioP2;P2;SDS_P1;SDS_P2;PMS_P1;PMS_P2;Temp;Humidity;BMP_temperature;BMP_pressure;BME280_temperature;BME280_humidity;BME280_pressure;Samples;Min_cycle;Max_cycle;Signal;HPM_P1;HPM_P2
2022/10/23 00:00:16;;;;;;;8.90;4.17;;;15.70;96.80;;;;;;5095265;28;20472;-77
2022/10/23 00:02:43;;;;;;;11.10;4.83;;;15.70;96.90;;;;;;5094949;28;20448;-76
2022/10/23 00:05:11;;;;;;;13.20;4.43;;;15.70;96.90;;;;;;5094801;28;20459;-77
2022/10/23 00:07:38;;;;;;;8.23;4.33;;;15.70;96.90;;;;;;5094628;28;20965;-77
2022/10/23 00:10:06;;;;;;;9.00;4.80;;;15.70;96.90;;;;;;5094805;28;20477;-77
2022/10/23 00:12:33;;;;;;;9.50;4.57;;;15.60;96.80;;;;;;5094448;28;21044;-77
2022/10/23 00:14:59;;;;;;;8.17;5.27;;;15.60;96.90;;;;;;5094619;28;20432;-77
2022/10/23 00:17:26;;;;;;;10.80;5.50;;;15.60;96.90;;;;;;5094481;28;20452;-77
2022/10/23 00:19:53;;;;;;;8.20;5.60;;;15.60;96.90;;;;;;5094578;28;20468;-77
2022/10/23 00:22:21;;;;;;;11.00;5.77;;;15.60;97.00;;;;;;5094500;28;20455;-77
2022/10/23 00:24:48;;;;;;;18.53;6.50;;;15.60;97.00;;;;;;5094504;28;20455;-77
2022/10/23 00:27:14;;;;;;;8.80;5.30;;;15.60;97.10;;;;;;5095161;28;20456;-77
2022/10/23 00:29:41;;;;;;;10.70;5.83;;;15.50;97.10;;;;;;5093995;28;20987;-77
2022/10/23 00:32:08;;;;;;;13.43;6.50;;;15.50;97.10;;;;;;5094352;28;20495;-77
2022/10/23 00:34:34;;;;;;;9.20;5.90;;;15.50;97.10;;;;;;5094024;28;20436;-77
2022/10/23 00:37:01;;;;;;;7.60;5.60;;;15.50;97.00;;;;;;5094856;28;20462;-77
2022/10/23 00:39:29;;;;;;;14.00;6.37;;;15.50;97.00;;;;;;5094703;28;20472;-77
2022/10/23 00:41:56;;;;;;;10.83;5.70;;;15.50;96.90;;;;;;5095137;28;20455;-77
2022/10/23 00:45:14;;;;;;;16.13;7.10;;;15.50;96.90;;;;;;5093910;28;20452;-77
2022/10/23 00:47:40;;;;;;;9.43;6.33;;;15.40;96.80;;;;;;5095858;28;20431;-77
2022/10/23 00:50:08;;;;;;;8.93;6.43;;;15.40;96.90;;;;;;5094526;28;20470;-76
2022/10/23 00:52:40;;;;;;;11.50;7.60;;;15.40;97.00;;;;;;5094625;28;20497;-77
2022/10/23 00:55:09;;;;;;;9.30;6.67;;;15.40;97.10;;;;;;5095388;28;20458;-77
2022/10/23 00:57:36;;;;;;;7.93;7.13;;;15.30;97.10;;;;;;5103135;28;20451;-76
2022/10/23 01:00:03;;;;;;;14.27;7.43;;;15.40;97.20;;;;;;5117720;28;20474;-76
2022/10/23 01:02:30;;;;;;;11.43;7.00;;;15.30;97.30;;;;;;5102967;28;20923;-76
2022/10/23 01:04:57;;;;;;;8.77;7.07;;;15.30;97.30;;;;;;5096943;28;20451;-76
2022/10/23 01:07:33;;;;;;;13.83;7.30;;;15.30;97.40;;;;;;5095301;28;20822;-76
2022/10/23 01:10:08;;;;;;;18.13;8.13;;;15.30;97.40;;;;;;5095364;28;20826;-76
2022/10/23 01:12:44;;;;;;;11.43;7.10;;;15.30;97.60;;;;;;5094919;28;20476;-77
2022/10/23 01:15:16;;;;;;;11.03;6.70;;;15.30;97.60;;;;;;5094912;28;20437;-76
2022/10/23 01:17:48;;;;;;;18.60;8.30;;;15.30;97.70;;;;;;5094444;28;20435;-76
2022/10/23 01:20:29;;;;;;;10.63;8.10;;;15.30;97.70;;;;;;5094085;28;20464;-76
2022/10/23 01:23:14;;;;;;;11.60;8.40;;;15.30;97.70;;;;;;5094211;28;20425;-76
2022/10/23 01:25:58;;;;;;;9.70;7.53;;;15.30;97.70;;;;;;5093075;28;20451;-77
2022/10/23 01:28:31;;;;;;;14.47;8.40;;;15.30;97.80;;;;;;5094110;28;20424;-77
2022/10/23 01:31:01;;;;;;;10.17;8.17;;;15.30;97.90;;;;;;5093960;28;20463;-77
2022/10/23 01:33:33;;;;;;;11.90;7.87;;;15.30;97.90;;;;;;5093810;28;20435;-76
2022/10/23 01:36:04;;;;;;;11.13;7.50;;;15.30;98.00;;;;;;5093769;28;20914;-76
2022/10/23 01:38:39;;;;;;;8.57;7.70;;;15.20;98.00;;;;;;5093739;28;20451;-76
2022/10/23 01:41:12;;;;;;;11.77;8.10;;;15.20;98.10;;;;;;5093664;28;20463;-77
2022/10/23 01:43:45;;;;;;;9.97;6.87;;;15.20;98.10;;;;;;5093464;28;20459;-76
2022/10/23 01:46:16;;;;;;;12.67;8.07;;;15.20;98.10;;;;;;5093845;28;20432;-76
2022/10/23 01:48:50;;;;;;;14.07;7.10;;;15.20;98.20;;;;;;5093788;28;20539;-76
2022/10/23 01:51:19;;;;;;;10.53;6.83;;;15.20;98.20;;;;;;5093255;28;20966;-76
2022/10/23 01:53:49;;;;;;;10.70;7.43;;;15.20;98.20;;;;;;5093656;28;20487;-76
2022/10/23 01:56:20;;;;;;;11.90;7.30;;;15.20;98.30;;;;;;5094512;28;20443;-76
2022/10/23 01:58:51;;;;;;;14.20;7.73;;;15.20;98.30;;;;;;5097706;28;20454;-76
2022/10/23 02:01:21;;;;;;;20.00;8.70;;;15.20;98.40;;;;;;5097614;28;20436;-76
2022/10/23 02:03:49;;;;;;;10.57;7.20;;;15.20;98.50;;;;;;5097334;28;20451;-75
2022/10/23 02:06:16;;;;;;;12.50;8.17;;;15.20;98.60;;;;;;5097501;28;20459;-75
2022/10/23 02:08:43;;;;;;;15.57;8.00;;;15.20;98.60;;;;;;5097056;28;20458;-75
2022/10/23 02:11:13;;;;;;;14.37;7.60;;;15.30;98.80;;;;;;5097491;28;20540;-75
2022/10/23 02:13:44;;;;;;;13.37;6.97;;;15.20;98.80;;;;;;5097303;28;20447;-75
2022/10/23 02:16:21;;;;;;;15.40;6.80;;;15.20;98.90;;;;;;5096873;28;20810;-75
2022/10/23 02:18:55;;;;;;;15.47;7.17;;;15.20;98.90;;;;;;5096797;28;20869;-75
2022/10/23 02:21:31;;;;;;;12.17;7.37;;;15.30;99.00;;;;;;5097237;28;20429;-75
2022/10/23 02:24:03;;;;;;;12.40;7.20;;;15.30;99.10;;;;;;5098747;28;20440;-72
2022/10/23 02:26:34;;;;;;;12.50;6.73;;;15.30;99.10;;;;;;5118136;28;20438;-72
2022/10/23 02:29:07;;;;;;;13.27;6.03;;;15.30;99.10;;;;;;5110806;28;20475;-72
2022/10/23 02:34:03;;;;;;;15.80;6.10;;;15.30;99.10;;;;;;5055395;28;20868;-72
2022/10/23 02:36:30;;;;;;;11.60;5.93;;;15.30;99.10;;;;;;5057389;28;20449;-72
2022/10/23 02:38:56;;;;;;;10.13;5.77;;;15.30;99.20;;;;;;5057887;28;20459;-72
2022/10/23 02:41:35;;;;;;;7.53;4.50;;;15.30;99.30;;;;;;5057457;28;20441;-72
2022/10/23 02:44:11;;;;;;;9.93;5.90;;;15.30;99.30;;;;;;5037454;28;20450;-72
2022/10/23 02:46:48;;;;;;;11.10;5.10;;;15.30;99.60;;;;;;5037474;28;20439;-72
2022/10/23 02:49:21;;;;;;;8.70;5.57;;;15.30;99.30;;;;;;5037926;28;20439;-72
2022/10/23 02:51:58;;;;;;;6.50;5.30;;;15.30;99.30;;;;;;5036968;28;20543;-72
2022/10/23 02:54:36;;;;;;;11.20;5.43;;;15.30;99.30;;;;;;5037555;28;20424;-72
2022/10/23 02:57:09;;;;;;;7.00;5.53;;;15.30;99.30;;;;;;5036065;28;20443;-72
2022/10/23 02:59:43;;;;;;;8.03;5.47;;;15.40;99.50;;;;;;5036828;28;20447;-72
2022/10/23 03:02:18;;;;;;;11.50;5.70;;;15.30;99.40;;;;;;5036514;28;20464;-72
2022/10/23 03:04:47;;;;;;;9.87;5.80;;;15.40;99.40;;;;;;5036915;28;20431;-72
2022/10/23 03:07:15;;;;;;;8.70;5.33;;;15.30;99.40;;;;;;5036425;28;20467;-71
2022/10/23 03:09:42;;;;;;;10.97;4.90;;;15.40;99.40;;;;;;5036329;28;20435;-71
2022/10/23 03:12:09;;;;;;;12.10;5.60;;;15.30;99.30;;;;;;5036688;28;20494;-72
2022/10/23 03:14:35;;;;;;;6.47;4.03;;;15.40;99.40;;;;;;5036412;28;20462;-72
2022/10/23 03:17:02;;;;;;;9.17;4.63;;;15.40;99.50;;;;;;5026531;28;20462;-71
2022/10/23 03:19:29;;;;;;;10.73;4.80;;;15.40;99.50;;;;;;5022436;28;20455;-71
2022/10/23 03:21:57;;;;;;;10.00;5.17;;;15.30;99.60;;;;;;5032588;28;20474;-72
2022/10/23 03:24:24;;;;;;;10.10;5.63;;;15.40;99.60;;;;;;5030739;28;20838;-72
2022/10/23 03:26:53;;;;;;;8.27;5.50;;;15.40;99.70;;;;;;5032918;28;20483;-72
2022/10/23 03:29:20;;;;;;;10.20;5.53;;;15.40;99.80;;;;;;5032491;28;20456;-72
2022/10/23 03:31:47;;;;;;;10.00;4.93;;;15.40;99.80;;;;;;5031761;28;20546;-72
2022/10/23 03:34:13;;;;;;;6.30;4.60;;;15.40;99.70;;;;;;5035364;28;20511;-72
2022/10/23 03:36:41;;;;;;;9.73;4.10;;;15.40;99.80;;;;;;5034496;28;20458;-72
2022/10/23 03:39:09;;;;;;;9.63;4.53;;;15.40;99.80;;;;;;5040223;28;20459;-72
2022/10/23 03:41:36;;;;;;;12.97;4.53;;;15.40;99.70;;;;;;5037061;28;20459;-72
2022/10/23 03:44:03;;;;;;;8.63;3.70;;;15.40;99.80;;;;;;5033786;28;20463;-72
2022/10/23 03:46:29;;;;;;;7.70;4.33;;;15.40;99.80;;;;;;5035971;28;20448;-72
2022/10/23 03:48:57;;;;;;;8.90;4.50;;;15.40;99.80;;;;;;5032590;28;20458;-72
2022/10/23 03:51:25;;;;;;;7.20;4.33;;;15.30;99.80;;;;;;5034699;28;20446;-72
2022/10/23 03:53:52;;;;;;;4.43;3.80;;;15.40;99.90;;;;;;5035059;28;20459;-72
2022/10/23 03:56:20;;;;;;;5.47;3.80;;;15.40;99.90;;;;;;5034947;28;20451;-73
2022/10/23 03:58:47;;;;;;;8.93;4.23;;;15.40;99.90;;;;;;5034575;28;20448;-72
2022/10/23 04:01:14;;;;;;;8.13;3.63;;;15.40;99.90;;;;;;5033738;28;20443;-72
2022/10/23 04:03:41;;;;;;;7.00;3.83;;;15.40;99.90;;;;;;5035459;28;20467;-72
2022/10/23 04:06:08;;;;;;;5.77;3.70;;;15.40;99.90;;;;;;5033624;28;20447;-72
2022/10/23 04:08:35;;;;;;;7.00;3.80;;;15.40;99.90;;;;;;5032796;28;20466;-72
2022/10/23 04:11:01;;;;;;;9.20;3.87;;;15.40;99.90;;;;;;5034087;28;20431;-72
2022/10/23 04:13:29;;;;;;;5.13;3.50;;;15.40;99.90;;;;;;5033500;28;20474;-72
2022/10/23 04:15:56;;;;;;;11.30;3.93;;;15.40;99.90;;;;;;5033889;28;20491;-72
2022/10/23 04:18:23;;;;;;;8.30;4.27;;;15.40;99.90;;;;;;5018611;28;20436;-72
2022/10/23 04:20:51;;;;;;;11.60;3.97;;;15.40;99.90;;;;;;5034822;28;20449;-72
2022/10/23 04:23:18;;;;;;;10.40;4.80;;;15.40;99.90;;;;;;5035845;28;20464;-71
2022/10/23 04:25:44;;;;;;;7.43;3.73;;;15.40;99.90;;;;;;5034686;28;20451;-72
2022/10/23 04:28:11;;;;;;;5.40;3.90;;;15.40;99.90;;;;;;5033980;28;20459;-72
2022/10/23 04:30:40;;;;;;;7.63;3.70;;;15.40;99.90;;;;;;5035563;28;20992;-72
2022/10/23 04:33:07;;;;;;;11.30;3.80;;;15.40;99.90;;;;;;5035640;28;20510;-72
2022/10/23 04:35:34;;;;;;;4.57;3.17;;;15.40;99.90;;;;;;5035956;28;20452;-72
2022/10/23 04:38:00;;;;;;;5.90;3.80;;;15.40;99.90;;;;;;5035477;28;20454;-72
2022/10/23 04:40:27;;;;;;;10.50;4.00;;;15.30;99.90;;;;;;5035406;28;20450;-72
2022/10/23 04:42:54;;;;;;;7.50;3.80;;;15.30;99.90;;;;;;5034940;28;20464;-72
2022/10/23 04:45:21;;;;;;;8.73;4.17;;;15.40;99.90;;;;;;5035184;28;20478;-72
2022/10/23 04:47:49;;;;;;;7.53;3.70;;;15.40;99.90;;;;;;5035138;28;20482;-72
2022/10/23 04:50:16;;;;;;;12.83;4.53;;;15.30;99.90;;;;;;5034975;28;20455;-72
2022/10/23 04:52:42;;;;;;;6.00;3.87;;;15.40;99.90;;;;;;5033210;28;20490;-72
2022/10/23 04:55:10;;;;;;;6.50;4.10;;;15.40;99.90;;;;;;5035480;28;20413;-72
2022/10/23 04:57:37;;;;;;;8.90;4.07;;;15.40;99.90;;;;;;5035196;28;20458;-72
2022/10/23 05:00:07;;;;;;;7.03;3.83;;;15.30;99.90;;;;;;5035541;28;20475;-72
2022/10/23 05:02:34;;;;;;;10.73;4.60;;;15.30;99.90;;;;;;5034959;28;20470;-72
2022/10/23 05:05:02;;;;;;;9.20;3.60;;;15.30;99.90;;;;;;5034709;28;20435;-72
2022/10/23 05:07:28;;;;;;;9.13;4.13;;;15.30;99.90;;;;;;5035281;28;20506;-72
2022/10/23 05:09:55;;;;;;;6.47;3.93;;;15.30;99.90;;;;;;5035260;28;20462;-72
2022/10/23 05:12:24;;;;;;;4.83;3.57;;;15.30;99.90;;;;;;5035001;28;20502;-72
2022/10/23 05:14:51;;;;;;;12.73;3.83;;;15.30;99.90;;;;;;5035163;28;20466;-72
2022/10/23 05:17:22;;;;;;;11.13;4.13;;;15.20;99.90;;;;;;5034849;28;20458;-72
2022/10/23 05:19:53;;;;;;;6.87;4.07;;;15.20;99.90;;;;;;5034596;28;20435;-72
2022/10/23 05:22:24;;;;;;;8.60;4.20;;;15.20;99.90;;;;;;5017592;28;20482;-72
2022/10/23 05:24:51;;;;;;;6.50;4.33;;;15.20;99.90;;;;;;5034691;28;20431;-71
2022/10/23 05:27:18;;;;;;;6.10;3.77;;;15.20;99.90;;;;;;5034251;28;20455;-71
2022/10/23 05:29:45;;;;;;;16.43;5.00;;;15.20;99.90;;;;;;5034824;28;20809;-72
2022/10/23 05:32:15;;;;;;;9.27;4.20;;;15.20;99.90;;;;;;5036811;28;20494;-72
2022/10/23 05:34:43;;;;;;;6.43;4.13;;;15.20;99.90;;;;;;5038971;28;20437;-72
2022/10/23 05:37:12;;;;;;;11.87;3.80;;;15.20;99.90;;;;;;5038663;28;20447;-72
2022/10/23 05:39:40;;;;;;;11.87;3.53;;;15.20;99.90;;;;;;5038920;28;20430;-72
2022/10/23 05:42:07;;;;;;;7.70;3.83;;;15.20;99.90;;;;;;5038546;28;20475;-72
2022/10/23 05:44:34;;;;;;;7.10;4.13;;;15.20;99.90;;;;;;5037967;28;20447;-72
2022/10/23 05:47:00;;;;;;;6.20;3.87;;;15.20;99.90;;;;;;5038728;28;20450;-72
2022/10/23 05:49:27;;;;;;;8.67;3.57;;;15.20;99.90;;;;;;5038494;28;20451;-72
2022/10/23 05:51:54;;;;;;;12.03;4.90;;;15.20;99.90;;;;;;5038612;28;20479;-72
2022/10/23 05:54:21;;;;;;;11.20;4.50;;;15.20;99.90;;;;;;5038379;28;20551;-72
2022/10/23 05:56:49;;;;;;;10.90;4.70;;;15.10;99.90;;;;;;5038538;28;20455;-72
2022/10/23 05:59:15;;;;;;;9.20;4.30;;;15.10;99.90;;;;;;5037690;28;20424;-72
2022/10/23 06:01:42;;;;;;;13.80;5.73;;;15.10;99.90;;;;;;5038293;28;20416;-72
2022/10/23 06:04:09;;;;;;;8.43;5.10;;;15.10;99.90;;;;;;5037959;28;20454;-72
2022/10/23 06:06:36;;;;;;;6.10;3.90;;;15.10;99.90;;;;;;5038136;28;20453;-72
2022/10/23 06:09:03;;;;;;;7.20;3.97;;;15.10;99.90;;;;;;5037512;28;20481;-72
2022/10/23 06:11:30;;;;;;;7.80;4.97;;;15.10;99.90;;;;;;5038313;28;20552;-72
2022/10/23 06:13:59;;;;;;;8.10;4.43;;;15.10;99.90;;;;;;5036810;28;20570;-72
2022/10/23 06:16:26;;;;;;;6.93;4.60;;;15.10;99.90;;;;;;5036422;28;20446;-71
2022/10/23 06:18:53;;;;;;;8.03;4.20;;;15.10;99.90;;;;;;5037282;28;20514;-72
2022/10/23 06:21:19;;;;;;;8.60;3.40;;;15.10;99.90;;;;;;5031993;28;20454;-74
2022/10/23 06:23:46;;;;;;;10.90;4.13;;;15.10;99.90;;;;;;5019991;28;20477;-71
2022/10/23 06:26:15;;;;;;;13.57;3.90;;;15.10;99.90;;;;;;5017932;28;20451;-71
2022/10/23 06:28:42;;;;;;;8.33;4.00;;;15.10;99.90;;;;;;5018616;28;20474;-72
2022/10/23 06:31:13;;;;;;;7.90;3.43;;;15.10;99.90;;;;;;4999797;28;20885;-70
2022/10/23 06:33:40;;;;;;;3.77;3.30;;;15.10;99.90;;;;;;5016955;28;20899;-70
2022/10/23 06:36:09;;;;;;;10.40;3.77;;;15.10;99.90;;;;;;5017565;28;20462;-71
2022/10/23 06:38:39;;;;;;;5.97;3.07;;;15.10;99.90;;;;;;5018327;28;20517;-70
2022/10/23 06:41:06;;;;;;;6.63;3.07;;;15.20;99.90;;;;;;5017397;28;20463;-70
2022/10/23 06:43:34;;;;;;;7.50;3.23;;;15.20;99.90;;;;;;5017224;28;20471;-71
2022/10/23 06:46:02;;;;;;;6.27;3.43;;;15.20;99.90;;;;;;5017620;28;20440;-71
2022/10/23 06:48:30;;;;;;;11.37;3.10;;;15.20;99.90;;;;;;5017683;28;20490;-71
2022/10/23 06:50:57;;;;;;;7.90;3.63;;;15.30;99.90;;;;;;5018046;28;20455;-71
2022/10/23 06:53:24;;;;;;;6.67;2.73;;;15.20;99.90;;;;;;5017792;28;20862;-71
2022/10/23 06:55:52;;;;;;;7.27;3.60;;;15.30;99.90;;;;;;5017940;28;20471;-71
2022/10/23 06:58:18;;;;;;;5.80;3.43;;;15.30;99.90;;;;;;5017872;28;20953;-71
2022/10/23 07:00:45;;;;;;;11.50;3.47;;;15.30;99.90;;;;;;5018102;28;20460;-71
2022/10/23 07:03:12;;;;;;;5.83;3.40;;;15.40;99.90;;;;;;5018104;28;20993;-71
2022/10/23 07:05:43;;;;;;;6.43;3.70;;;15.40;99.90;;;;;;5017994;28;20447;-71
2022/10/23 07:08:10;;;;;;;10.30;3.27;;;15.40;99.90;;;;;;5017870;28;20984;-71
2022/10/23 07:10:37;;;;;;;7.50;3.43;;;15.50;99.90;;;;;;5018157;28;20458;-71
2022/10/23 07:13:04;;;;;;;5.77;3.20;;;15.50;99.90;;;;;;5017562;28;20993;-71
2022/10/23 07:15:31;;;;;;;7.53;3.50;;;15.50;99.90;;;;;;5020546;28;20454;-68
2022/10/23 07:17:57;;;;;;;6.23;2.70;;;15.50;99.90;;;;;;5020067;28;20458;-71
2022/10/23 07:20:24;;;;;;;8.27;2.67;;;15.60;99.90;;;;;;5018548;28;20443;-71
2022/10/23 07:22:53;;;;;;;4.13;2.90;;;15.60;99.70;;;;;;5018483;28;20468;-71
2022/10/23 07:25:21;;;;;;;6.20;2.97;;;15.60;99.70;;;;;;5017361;28;20816;-71
2022/10/23 07:27:48;;;;;;;6.07;2.10;;;15.70;99.50;;;;;;5017098;28;20448;-72
2022/10/23 07:30:16;;;;;;;5.03;3.10;;;15.70;99.40;;;;;;5017058;28;20517;-71
2022/10/23 07:32:43;;;;;;;5.87;3.07;;;15.80;99.40;;;;;;5016700;28;20479;-71
2022/10/23 07:35:12;;;;;;;6.73;3.80;;;15.80;99.30;;;;;;5016977;28;20602;-72
2022/10/23 07:37:38;;;;;;;4.17;2.40;;;15.90;99.20;;;;;;5016825;28;20950;-72
2022/10/23 07:40:08;;;;;;;4.13;2.83;;;16.00;99.00;;;;;;5016751;28;20447;-72
2022/10/23 07:42:35;;;;;;;8.13;3.20;;;16.00;98.90;;;;;;5016463;28;20476;-72
2022/10/23 07:45:03;;;;;;;2.87;2.60;;;16.00;98.50;;;;;;5016097;28;20455;-71
2022/10/23 07:47:31;;;;;;;7.03;3.47;;;16.10;98.30;;;;;;5016158;28;20463;-72
2022/10/23 07:49:58;;;;;;;6.83;2.47;;;16.10;98.30;;;;;;5016316;28;20811;-72
2022/10/23 07:52:25;;;;;;;8.57;3.00;;;16.10;98.30;;;;;;5016429;28;20994;-72
2022/10/23 07:54:51;;;;;;;7.40;2.90;;;16.10;98.40;;;;;;5015991;28;20478;-71
2022/10/23 07:57:20;;;;;;;20.67;3.20;;;16.20;98.50;;;;;;5016756;28;20454;-71
2022/10/23 07:59:47;;;;;;;9.87;3.13;;;16.20;98.20;;;;;;5016988;28;20466;-72
2022/10/23 08:02:15;;;;;;;6.17;2.27;;;16.30;98.20;;;;;;5015030;28;20494;-72
2022/10/23 08:04:42;;;;;;;4.10;2.53;;;16.30;98.00;;;;;;5021743;28;20463;-71
2022/10/23 08:07:09;;;;;;;3.20;2.37;;;16.40;98.10;;;;;;5016345;28;20452;-72
2022/10/23 08:09:36;;;;;;;3.80;2.53;;;16.50;97.70;;;;;;5015135;28;20475;-71
2022/10/23 08:12:03;;;;;;;4.03;2.73;;;16.60;97.60;;;;;;5016351;28;20476;-71
2022/10/23 08:14:32;;;;;;;5.53;2.60;;;16.60;97.30;;;;;;5013377;28;20492;-71
2022/10/23 08:16:59;;;;;;;5.67;3.00;;;16.60;97.20;;;;;;5011700;28;20464;-71
2022/10/23 08:19:25;;;;;;;4.37;2.40;;;16.70;97.10;;;;;;5016467;28;20455;-71
2022/10/23 08:21:53;;;;;;;5.30;2.40;;;16.80;97.10;;;;;;5015189;28;20986;-71
2022/10/23 08:24:20;;;;;;;2.77;2.57;;;16.90;96.80;;;;;;5016054;28;20470;-71
2022/10/23 08:26:49;;;;;;;6.33;2.10;;;17.00;96.50;;;;;;5015739;28;20447;-71
2022/10/23 08:29:15;;;;;;;3.63;2.10;;;17.20;96.10;;;;;;5015852;28;20439;-72
2022/10/23 08:31:44;;;;;;;2.77;2.00;;;17.30;96.10;;;;;;5015727;28;20463;-72
2022/10/23 08:34:10;;;;;;;3.33;2.43;;;17.40;95.90;;;;;;5015264;28;20546;-72
2022/10/23 08:36:38;;;;;;;8.63;2.70;;;17.50;95.60;;;;;;5016008;28;20462;-72
2022/10/23 08:39:06;;;;;;;6.87;2.57;;;17.60;95.70;;;;;;5016559;28;20475;-72
2022/10/23 08:41:35;;;;;;;5.33;2.87;;;17.70;95.40;;;;;;5015884;28;20981;-71
2022/10/23 08:44:09;;;;;;;5.73;2.57;;;17.80;95.40;;;;;;5016115;28;20452;-71
2022/10/23 08:46:41;;;;;;;3.30;2.70;;;17.90;95.10;;;;;;5015980;28;20442;-71
2022/10/23 08:49:25;;;;;;;3.57;2.70;;;18.10;94.80;;;;;;5015861;28;20950;-72
2022/10/23 08:51:54;;;;;;;3.27;2.30;;;18.20;94.50;;;;;;5016189;28;20503;-71
2022/10/23 08:54:26;;;;;;;6.27;2.17;;;18.40;93.90;;;;;;4998758;28;20494;-71
2022/10/23 08:56:57;;;;;;;4.50;1.93;;;18.50;93.60;;;;;;5015760;28;20440;-71
2022/10/23 08:59:31;;;;;;;3.43;2.43;;;18.50;93.30;;;;;;5016121;28;20443;-71
2022/10/23 09:02:02;;;;;;;4.93;2.13;;;18.60;92.90;;;;;;5016484;28;20489;-71
2022/10/23 09:04:30;;;;;;;5.17;2.47;;;18.70;92.90;;;;;;5016654;28;20439;-71
2022/10/23 09:07:06;;;;;;;3.10;2.17;;;18.90;92.60;;;;;;5016232;28;20460;-71
2022/10/23 09:09:55;;;;;;;7.27;2.97;;;19.00;92.40;;;;;;5016425;28;20462;-71
2022/10/23 09:12:23;;;;;;;8.50;2.53;;;19.10;92.10;;;;;;5016771;28;20471;-71
2022/10/23 09:15:02;;;;;;;7.27;2.57;;;19.30;91.70;;;;;;5017082;28;20490;-71
2022/10/23 09:17:31;;;;;;;3.67;2.20;;;19.40;91.40;;;;;;5001442;28;20464;-71
2022/10/23 09:20:12;;;;;;;4.80;2.57;;;19.40;91.00;;;;;;5016522;28;20452;-71
2022/10/23 09:22:39;;;;;;;4.70;2.03;;;19.50;90.80;;;;;;5016872;28;20479;-71
2022/10/23 09:25:10;;;;;;;3.77;2.60;;;19.50;90.90;;;;;;5017021;28;20463;-71
2022/10/23 09:27:37;;;;;;;3.57;2.33;;;19.60;90.80;;;;;;5016514;28;20483;-71
2022/10/23 09:30:04;;;;;;;3.63;2.80;;;19.60;90.50;;;;;;5016801;28;20458;-71
2022/10/23 09:32:36;;;;;;;8.10;3.23;;;19.70;90.60;;;;;;5016078;28;21017;-71
2022/10/23 09:35:06;;;;;;;5.43;2.40;;;19.80;90.70;;;;;;5016652;28;20488;-71
2022/10/23 09:37:34;;;;;;;7.33;2.40;;;19.90;90.20;;;;;;5016252;28;20452;-71
2022/10/23 09:40:17;;;;;;;4.77;2.30;;;20.00;90.10;;;;;;5015925;28;20452;-72
2022/10/23 09:42:53;;;;;;;6.30;2.20;;;20.20;89.50;;;;;;5015802;28;20506;-72
2022/10/23 09:45:27;;;;;;;3.57;2.10;;;20.20;88.80;;;;;;5018085;28;20946;-71
2022/10/23 09:48:14;;;;;;;7.03;2.20;;;20.30;88.60;;;;;;5019886;28;20467;-71
2022/10/23 09:50:54;;;;;;;6.33;2.80;;;20.40;88.50;;;;;;5016335;28;20467;-71
2022/10/23 09:53:31;;;;;;;9.60;2.27;;;20.60;88.40;;;;;;5014937;28;20530;-72
2022/10/23 09:56:01;;;;;;;2.97;2.00;;;20.70;87.30;;;;;;5015134;28;20452;-72
2022/10/23 09:58:33;;;;;;;2.00;1.80;;;20.70;86.90;;;;;;5015171;28;20428;-71
2022/10/23 10:01:02;;;;;;;4.80;2.57;;;20.80;86.70;;;;;;5014699;28;20919;-72
2022/10/23 10:03:28;;;;;;;7.20;2.90;;;20.90;86.40;;;;;;5014627;28;20478;-71
2022/10/23 10:05:59;;;;;;;3.80;2.67;;;20.90;85.70;;;;;;5014823;28;20451;-72
2022/10/23 10:08:37;;;;;;;4.13;2.30;;;21.00;85.00;;;;;;5016059;28;20440;-72
2022/10/23 10:11:11;;;;;;;5.90;2.00;;;21.00;84.10;;;;;;5014720;28;20443;-71
2022/10/23 10:13:56;;;;;;;4.50;2.17;;;21.00;83.30;;;;;;5014313;28;20463;-71
2022/10/23 10:16:32;;;;;;;5.30;2.33;;;21.00;83.50;;;;;;5014415;28;20436;-70
2022/10/23 10:19:06;;;;;;;4.57;1.80;;;21.00;83.70;;;;;;5018162;28;20439;-72
2022/10/23 10:21:41;;;;;;;2.77;2.00;;;21.00;83.70;;;;;;5017970;28;20450;-72
2022/10/23 10:24:16;;;;;;;5.50;3.10;;;21.00;83.20;;;;;;5018523;28;20446;-72
2022/10/23 10:26:54;;;;;;;6.90;1.83;;;21.00;83.00;;;;;;5017917;28;20447;-72
2022/10/23 10:29:30;;;;;;;3.27;2.07;;;21.00;83.30;;;;;;5018512;28;20466;-71
2022/10/23 10:32:11;;;;;;;6.50;2.03;;;20.90;83.80;;;;;;5018699;28;20915;-70
2022/10/23 10:34:49;;;;;;;4.10;1.77;;;20.90;83.60;;;;;;5018926;28;20510;-72
2022/10/23 10:37:29;;;;;;;6.73;1.90;;;20.80;83.30;;;;;;5018796;28;20432;-72
2022/10/23 10:40:02;;;;;;;6.40;2.67;;;20.80;83.40;;;;;;5018013;28;20450;-72
2022/10/23 10:42:49;;;;;;;4.37;2.40;;;20.70;83.80;;;;;;5018608;28;20478;-72
2022/10/23 10:45:19;;;;;;;5.23;1.90;;;20.60;83.90;;;;;;5016987;28;20980;-71
2022/10/23 10:48:01;;;;;;;7.53;2.40;;;20.60;84.00;;;;;;5018251;28;20436;-71
2022/10/23 10:50:31;;;;;;;4.80;2.00;;;20.50;84.10;;;;;;5018101;28;20451;-71
2022/10/23 10:53:08;;;;;;;8.73;2.30;;;20.30;84.50;;;;;;5017835;28;20468;-72
2022/10/23 10:55:38;;;;;;;3.50;1.93;;;20.20;85.00;;;;;;5017374;28;21005;-72
2022/10/23 10:58:13;;;;;;;3.63;2.30;;;20.10;85.50;;;;;;5017449;28;20447;-72
2022/10/23 11:00:40;;;;;;;2.10;1.80;;;20.00;86.40;;;;;;5019386;28;20447;-71
2022/10/23 11:03:20;;;;;;;2.20;1.63;;;19.90;86.80;;;;;;5020333;28;20474;-71
2022/10/23 11:05:50;;;;;;;3.87;2.00;;;19.80;87.70;;;;;;5018380;28;20937;-71
2022/10/23 11:08:26;;;;;;;2.90;1.87;;;19.70;88.40;;;;;;5018127;28;21010;-71
2022/10/23 11:10:57;;;;;;;6.40;2.03;;;19.60;88.80;;;;;;5017564;28;20483;-72
2022/10/23 11:13:27;;;;;;;3.63;2.10;;;19.60;89.10;;;;;;5018936;28;20562;-71
2022/10/23 11:15:59;;;;;;;2.70;1.80;;;19.60;89.70;;;;;;5018505;28;20471;-71
2022/10/23 11:18:28;;;;;;;6.03;1.70;;;19.60;90.00;;;;;;5018888;28;20428;-71
2022/10/23 11:21:07;;;;;;;6.70;2.13;;;19.60;90.20;;;;;;5019227;28;20805;-71
2022/10/23 11:24:11;;;;;;;2.43;1.67;;;19.50;90.20;;;;;;5019761;28;20475;-71
2022/10/23 11:26:50;;;;;;;2.80;2.00;;;19.50;90.20;;;;;;5019062;28;20436;-71
2022/10/23 11:29:44;;;;;;;5.10;2.00;;;19.50;90.20;;;;;;5017369;28;20856;-72
2022/10/23 11:32:26;;;;;;;1.87;1.67;;;19.50;90.20;;;;;;5020305;28;20501;-72
2022/10/23 11:35:23;;;;;;;2.97;2.20;;;19.50;90.00;;;;;;5017909;28;20478;-71
2022/10/23 11:37:59;;;;;;;4.17;1.90;;;19.50;88.40;;;;;;5003835;28;20452;-71
2022/10/23 11:40:27;;;;;;;5.43;2.00;;;19.60;87.60;;;;;;5019502;28;20428;-72
2022/10/23 11:42:54;;;;;;;1.97;1.60;;;20.00;86.90;;;;;;5017488;28;20989;-71
2022/10/23 11:45:30;;;;;;;6.03;2.40;;;20.40;84.50;;;;;;5019444;28;20440;-71
2022/10/23 11:47:59;;;;;;;7.33;2.20;;;20.80;82.50;;;;;;5019054;28;20436;-75
2022/10/23 11:50:30;;;;;;;5.57;2.37;;;21.00;80.10;;;;;;5017084;28;20459;-72
2022/10/23 11:53:00;;;;;;;3.40;2.00;;;21.20;79.20;;;;;;5016521;28;20475;-71
2022/10/23 11:55:30;;;;;;;3.93;2.27;;;21.50;78.90;;;;;;4999806;28;20845;-71
2022/10/23 11:58:13;;;;;;;5.03;2.60;;;21.80;77.10;;;;;;5016933;28;20460;-71
2022/10/23 12:00:52;;;;;;;4.10;2.10;;;22.20;75.10;;;;;;5016968;28;20444;-72
2022/10/23 12:03:22;;;;;;;2.00;1.80;;;22.50;73.50;;;;;;5016059;28;20819;-71
2022/10/23 12:05:59;;;;;;;2.43;1.63;;;22.80;72.20;;;;;;5016831;28;20918;-71
2022/10/23 12:08:28;;;;;;;4.60;2.73;;;23.10;70.70;;;;;;5017296;28;20446;-71
2022/10/23 12:10:56;;;;;;;5.40;2.00;;;23.40;69.20;;;;;;5017149;28;20447;-70
2022/10/23 12:13:43;;;;;;;3.00;2.00;;;23.70;68.80;;;;;;5016436;28;20479;-72
2022/10/23 12:16:10;;;;;;;3.77;1.60;;;24.00;67.00;;;;;;5017378;28;20483;-71
2022/10/23 12:18:47;;;;;;;3.13;1.90;;;24.30;65.70;;;;;;5017486;28;20851;-71
2022/10/23 12:21:19;;;;;;;4.10;1.70;;;24.60;64.50;;;;;;5017688;28;20498;-69
2022/10/23 12:24:06;;;;;;;2.20;1.30;;;24.70;62.90;;;;;;5019628;28;20472;-68
2022/10/23 12:26:56;;;;;;;4.70;1.50;;;24.80;62.30;;;;;;5020450;28;20447;-68
2022/10/23 12:29:39;;;;;;;5.93;1.70;;;24.80;62.00;;;;;;5020417;28;20436;-69
2022/10/23 12:32:19;;;;;;;3.93;1.60;;;24.70;61.00;;;;;;5020211;28;20475;-69
2022/10/23 12:34:54;;;;;;;2.60;1.50;;;24.50;61.70;;;;;;5022610;28;20471;-67
2022/10/23 12:37:51;;;;;;;3.47;1.80;;;24.30;62.40;;;;;;5025343;28;20436;-66
2022/10/23 12:40:18;;;;;;;2.67;1.67;;;24.10;63.30;;;;;;5025666;28;20467;-68
2022/10/23 12:42:54;;;;;;;2.07;1.87;;;24.00;63.70;;;;;;5025392;28;20471;-67
2022/10/23 12:45:24;;;;;;;2.70;1.80;;;23.90;64.50;;;;;;5025096;28;20432;-68
2022/10/23 12:47:52;;;;;;;4.53;2.17;;;23.80;64.10;;;;;;5023753;28;20455;-67
2022/10/23 12:50:21;;;;;;;3.70;1.80;;;23.70;64.80;;;;;;5024556;28;20459;-67
2022/10/23 12:52:53;;;;;;;4.60;1.77;;;23.60;65.50;;;;;;5021506;28;20852;-67
2022/10/23 12:55:20;;;;;;;4.57;2.43;;;23.50;66.30;;;;;;5017660;28;20520;-66
2022/10/23 12:57:47;;;;;;;7.33;2.17;;;23.40;66.40;;;;;;5015225;28;20454;-66
2022/10/23 13:00:21;;;;;;;3.80;1.97;;;23.30;66.90;;;;;;5017053;28;20432;-67
2022/10/23 13:02:58;;;;;;;4.90;1.93;;;23.30;67.50;;;;;;5022257;28;20483;-67